createdAt,value
2023-03-31T00:01:28.805Z,100.00
2023-03-31T00:04:05.258Z,100.00
2023-03-31T00:06:38.371Z,100.00
2023-03-31T00:09:10.915Z,100.00
2023-03-31T00:11:40.981Z,100.00
2023-03-31T00:14:10.290Z,100.00
2023-03-31T00:16:40.768Z,100.00
2023-03-31T00:19:18.379Z,100.00
2023-03-31T00:21:48.060Z,100.00
2023-03-31T00:24:17.229Z,100.00
2023-03-31T00:26:46.312Z,100.00
2023-03-31T00:29:15.666Z,100.00
2023-03-31T00:31:44.514Z,100.00
2023-03-31T00:34:14.588Z,100.00
2023-03-31T00:36:47.717Z,100.00
2023-03-31T00:39:18.201Z,100.00
2023-03-31T00:41:47.054Z,100.00
2023-03-31T00:44:19.275Z,100.00
2023-03-31T00:47:00.467Z,100.00
2023-03-31T00:49:34.350Z,100.00
2023-03-31T00:52:07.759Z,100.00
2023-03-31T00:54:39.821Z,100.00
2023-03-31T00:57:10.331Z,100.00
2023-03-31T00:59:42.191Z,100.00
2023-03-31T01:02:14.284Z,100.00
2023-03-31T01:04:50.439Z,100.00
2023-03-31T01:07:26.125Z,100.00
2023-03-31T01:09:59.580Z,100.00
2023-03-31T01:12:29.041Z,100.00
2023-03-31T01:14:57.894Z,100.00
2023-03-31T01:17:30.111Z,100.00
2023-03-31T01:20:14.218Z,100.00
2023-03-31T01:23:19.543Z,100.00
2023-03-31T01:26:15.043Z,100.00
2023-03-31T01:28:48.887Z,100.00
2023-03-31T01:31:33.724Z,100.00
2023-03-31T01:34:30.647Z,100.00
2023-03-31T01:37:41.650Z,100.00
2023-03-31T01:40:51.198Z,100.00
2023-03-31T01:43:26.970Z,100.00
2023-03-31T01:46:02.147Z,100.00
2023-03-31T01:48:42.554Z,100.00
2023-03-31T01:51:18.282Z,100.00
2023-03-31T01:53:53.247Z,100.00
2023-03-31T01:56:27.201Z,100.00
2023-03-31T01:59:03.297Z,100.00
2023-03-31T02:01:39.688Z,100.00
2023-03-31T02:04:15.044Z,100.00
2023-03-31T02:06:53.287Z,100.00
2023-03-31T02:09:25.951Z,100.00
2023-03-31T02:11:57.299Z,100.00
2023-03-31T02:14:32.919Z,100.00
2023-03-31T02:17:04.112Z,100.00
2023-03-31T02:19:36.079Z,100.00
2023-03-31T02:22:07.093Z,100.00
2023-03-31T02:24:39.775Z,100.00
2023-03-31T02:27:14.272Z,100.00
2023-03-31T02:29:44.527Z,100.00
2023-03-31T02:32:21.990Z,100.00
2023-03-31T02:34:50.808Z,100.00
2023-03-31T02:37:19.530Z,100.00
2023-03-31T02:39:51.884Z,100.00
2023-03-31T02:42:21.374Z,100.00
2023-03-31T02:44:51.553Z,100.00
2023-03-31T02:47:24.004Z,100.00
2023-03-31T02:49:56.036Z,100.00
2023-03-31T02:52:53.023Z,100.00
2023-03-31T02:55:37.966Z,100.00
2023-03-31T02:58:43.761Z,100.00
2023-03-31T03:01:37.303Z,100.00
2023-03-31T03:04:18.436Z,100.00
2023-03-31T03:06:57.823Z,100.00
2023-03-31T03:09:37.213Z,100.00
2023-03-31T03:12:14.192Z,100.00
2023-03-31T03:14:50.150Z,100.00
2023-03-31T03:17:25.077Z,100.00
2023-03-31T03:19:56.447Z,100.00
2023-03-31T03:22:25.583Z,100.00
2023-03-31T03:24:54.395Z,100.00
2023-03-31T03:27:24.773Z,100.00
2023-03-31T03:29:53.758Z,100.00
2023-03-31T03:32:24.014Z,100.00
2023-03-31T03:34:52.534Z,100.00
2023-03-31T03:37:21.640Z,100.00
2023-03-31T03:39:50.129Z,100.00
2023-03-31T03:42:18.830Z,100.00
2023-03-31T03:44:47.709Z,100.00
2023-03-31T03:47:16.816Z,100.00
2023-03-31T03:49:48.894Z,100.00
2023-03-31T03:52:17.680Z,100.00
2023-03-31T03:54:46.297Z,100.00
2023-03-31T03:57:14.957Z,100.00
2023-03-31T03:59:43.560Z,100.00
2023-03-31T04:02:12.341Z,100.00
2023-03-31T04:04:41.299Z,100.00
2023-03-31T04:07:11.297Z,100.00
2023-03-31T04:09:39.827Z,100.00
2023-03-31T04:12:08.315Z,100.00
2023-03-31T04:14:36.915Z,100.00
2023-03-31T04:17:05.655Z,100.00
2023-03-31T04:19:34.914Z,100.00
2023-03-31T04:22:05.142Z,100.00
2023-03-31T04:24:38.994Z,100.00
2023-03-31T04:27:08.758Z,100.00
2023-03-31T04:29:37.637Z,100.00
2023-03-31T04:32:06.671Z,100.00
2023-03-31T04:34:38.012Z,100.00
2023-03-31T04:37:06.495Z,100.00
2023-03-31T04:39:36.644Z,100.00
2023-03-31T04:42:05.538Z,100.00
2023-03-31T04:44:34.290Z,100.00
2023-03-31T04:47:09.827Z,100.00
2023-03-31T04:49:38.323Z,100.00
2023-03-31T04:52:07.368Z,100.00
2023-03-31T04:54:37.394Z,100.00
2023-03-31T04:57:06.286Z,100.00
2023-03-31T04:59:34.827Z,100.00
2023-03-31T05:02:03.879Z,100.00
2023-03-31T05:04:33.135Z,100.00
2023-03-31T05:07:01.971Z,100.00
2023-03-31T05:09:30.950Z,100.00
2023-03-31T05:12:01.199Z,100.00
2023-03-31T05:14:29.869Z,100.00
2023-03-31T05:16:59.685Z,100.00
2023-03-31T05:19:28.406Z,100.00
2023-03-31T05:21:57.106Z,100.00
2023-03-31T05:24:26.208Z,100.00
2023-03-31T05:26:54.934Z,100.00
2023-03-31T05:29:25.291Z,100.00
2023-03-31T05:31:55.730Z,100.00
2023-03-31T05:34:24.486Z,100.00
2023-03-31T05:36:54.213Z,100.00
2023-03-31T05:39:22.847Z,100.00
2023-03-31T05:41:51.785Z,100.00
2023-03-31T05:44:21.058Z,100.00
2023-03-31T05:46:51.324Z,100.00
2023-03-31T05:49:20.035Z,100.00
2023-03-31T05:51:49.080Z,100.00
2023-03-31T05:54:17.653Z,100.00
2023-03-31T05:56:47.158Z,100.00
2023-03-31T05:59:15.691Z,100.00
2023-03-31T06:01:44.438Z,100.00
2023-03-31T06:04:14.699Z,100.00
2023-03-31T06:06:44.960Z,100.00
2023-03-31T06:09:14.245Z,100.00
2023-03-31T06:11:42.811Z,100.00
2023-03-31T06:14:11.738Z,100.00
2023-03-31T06:16:40.522Z,100.00
2023-03-31T06:19:09.509Z,100.00
2023-03-31T06:21:39.467Z,100.00
2023-03-31T06:24:10.170Z,100.00
2023-03-31T06:26:38.628Z,100.00
2023-03-31T06:29:07.311Z,100.00
2023-03-31T06:31:36.496Z,100.00
2023-03-31T06:34:05.084Z,100.00
2023-03-31T06:36:33.938Z,100.00
2023-03-31T06:39:03.988Z,100.00
2023-03-31T06:41:32.580Z,100.00
2023-03-31T06:44:01.143Z,100.00
2023-03-31T06:46:29.805Z,100.00
2023-03-31T06:48:58.769Z,100.00
2023-03-31T06:51:31.056Z,100.00
2023-03-31T06:54:01.009Z,100.00
2023-03-31T06:56:31.126Z,100.00
2023-03-31T06:58:59.703Z,100.00
2023-03-31T07:01:28.607Z,100.00
2023-03-31T07:03:58.524Z,100.00
2023-03-31T07:06:27.398Z,100.00
2023-03-31T07:08:55.899Z,100.00
2023-03-31T07:11:24.333Z,100.00
2023-03-31T07:13:54.398Z,100.00
2023-03-31T07:16:23.897Z,100.00
2023-03-31T07:18:54.989Z,100.00
2023-03-31T07:21:23.676Z,100.00
2023-03-31T07:23:52.089Z,100.00
2023-03-31T07:26:21.053Z,100.00
2023-03-31T07:28:49.555Z,100.00
2023-03-31T07:31:19.783Z,100.00
2023-03-31T07:33:48.392Z,100.00
2023-03-31T07:36:17.538Z,100.00
2023-03-31T07:38:49.396Z,100.00
2023-03-31T07:41:20.147Z,100.00
2023-03-31T07:43:49.284Z,100.00
2023-03-31T07:46:21.710Z,100.00
2023-03-31T07:48:50.809Z,100.00
2023-03-31T07:51:21.449Z,100.00
2023-03-31T07:53:52.637Z,100.00
2023-03-31T07:56:22.242Z,100.00
2023-03-31T07:58:55.121Z,100.00
2023-03-31T08:01:29.341Z,100.00
2023-03-31T08:03:59.424Z,100.00
2023-03-31T08:06:29.579Z,100.00
2023-03-31T08:08:58.762Z,100.00
2023-03-31T08:11:27.760Z,100.00
2023-03-31T08:13:56.286Z,100.00
2023-03-31T08:16:24.697Z,100.00
2023-03-31T08:18:54.682Z,100.00
2023-03-31T08:21:24.605Z,100.00
2023-03-31T08:23:55.496Z,100.00
2023-03-31T08:26:25.817Z,100.00
2023-03-31T08:28:54.848Z,100.00
2023-03-31T08:31:26.732Z,100.00
2023-03-31T08:33:57.662Z,100.00
2023-03-31T08:36:27.460Z,100.00
2023-03-31T08:38:56.280Z,100.00
2023-03-31T08:41:34.840Z,100.00
2023-03-31T08:44:07.050Z,100.00
2023-03-31T08:46:37.158Z,100.00
2023-03-31T08:49:09.267Z,100.00
2023-03-31T08:51:42.521Z,100.00
2023-03-31T08:54:18.019Z,100.00
2023-03-31T08:56:50.133Z,100.00
2023-03-31T08:59:27.614Z,100.00
2023-03-31T09:02:02.313Z,100.00
2023-03-31T09:04:51.753Z,100.00
2023-03-31T09:07:27.359Z,100.00
2023-03-31T09:10:08.082Z,100.00
2023-03-31T09:12:46.095Z,100.00
2023-03-31T09:15:24.234Z,100.00
2023-03-31T09:17:55.971Z,100.00
2023-03-31T09:20:32.510Z,100.00
2023-03-31T09:23:07.645Z,100.00
2023-03-31T09:25:41.933Z,100.00
2023-03-31T09:28:20.330Z,100.00
2023-03-31T09:30:51.126Z,98.93
2023-03-31T09:33:24.946Z,98.45
2023-03-31T09:35:55.197Z,99.23
2023-03-31T09:38:23.664Z,99.89
2023-03-31T09:40:52.437Z,99.08
2023-03-31T09:43:25.343Z,99.28
2023-03-31T09:46:08.537Z,98.49
2023-03-31T09:48:50.961Z,99.10
2023-03-31T09:51:27.491Z,98.30
2023-03-31T09:54:01.647Z,98.00
2023-03-31T09:56:48.972Z,98.65
2023-03-31T09:59:20.835Z,96.82
2023-03-31T10:01:53.561Z,98.33
2023-03-31T10:04:25.369Z,97.49
2023-03-31T10:06:57.943Z,98.16
2023-03-31T10:09:29.092Z,97.34
2023-03-31T10:11:59.577Z,97.81
2023-03-31T10:14:34.281Z,98.47
2023-03-31T10:17:07.765Z,98.50
2023-03-31T10:19:39.214Z,98.78
2023-03-31T10:22:17.722Z,99.16
2023-03-31T10:24:48.516Z,98.49
2023-03-31T10:27:24.481Z,97.58
2023-03-31T10:29:54.891Z,97.67
2023-03-31T10:32:29.189Z,97.22
2023-03-31T10:34:59.486Z,97.79
2023-03-31T10:37:31.930Z,98.86
2023-03-31T10:40:02.337Z,98.72
2023-03-31T10:42:30.991Z,98.64
2023-03-31T10:45:36.480Z,98.10
2023-03-31T10:48:18.309Z,97.48
2023-03-31T10:50:47.098Z,98.53
2023-03-31T10:53:28.082Z,98.15
2023-03-31T10:56:34.972Z,97.63
2023-03-31T10:59:52.758Z,97.35
2023-03-31T11:02:55.343Z,98.37
2023-03-31T11:05:35.024Z,97.42
2023-03-31T11:08:30.422Z,97.03
2023-03-31T11:11:23.468Z,96.52
2023-03-31T11:14:09.197Z,97.18
2023-03-31T11:16:46.792Z,95.86
2023-03-31T11:19:31.645Z,94.44
2023-03-31T11:22:10.060Z,91.76
2023-03-31T11:25:04.027Z,90.67
2023-03-31T11:27:45.194Z,91.41
2023-03-31T11:30:20.636Z,90.71
2023-03-31T11:33:03.230Z,90.02
2023-03-31T11:35:51.193Z,89.51
2023-03-31T11:38:50.845Z,89.48
2023-03-31T11:41:33.320Z,89.23
2023-03-31T11:44:05.677Z,90.32
2023-03-31T11:46:41.954Z,87.41
2023-03-31T11:49:18.307Z,87.58
2023-03-31T11:51:53.575Z,88.26
2023-03-31T11:54:29.732Z,87.07
2023-03-31T11:57:02.819Z,87.95
2023-03-31T11:59:34.770Z,89.11
2023-03-31T12:02:12.435Z,89.61
2023-03-31T12:04:44.401Z,89.07
2023-03-31T12:07:24.611Z,90.36
2023-03-31T12:10:03.424Z,87.57
2023-03-31T12:12:36.901Z,86.96
2023-03-31T12:15:15.626Z,86.67
2023-03-31T12:17:49.316Z,86.24
2023-03-31T12:20:27.447Z,86.50
2023-03-31T12:22:57.673Z,86.28
2023-03-31T12:25:28.575Z,86.17
2023-03-31T12:28:00.152Z,86.78
2023-03-31T12:30:34.867Z,86.75
2023-03-31T12:33:08.454Z,86.60
2023-03-31T12:35:47.067Z,86.61
2023-03-31T12:38:29.343Z,87.26
2023-03-31T12:41:07.822Z,87.69
2023-03-31T12:44:00.576Z,88.11
2023-03-31T12:46:44.435Z,88.84
2023-03-31T12:49:27.141Z,90.15
2023-03-31T12:52:02.757Z,91.15
2023-03-31T12:55:13.310Z,91.29
2023-03-31T12:57:46.870Z,90.91
2023-03-31T13:00:28.033Z,93.18
2023-03-31T13:03:34.767Z,93.44
2023-03-31T13:06:03.708Z,93.08
2023-03-31T13:08:56.273Z,95.00
2023-03-31T13:11:38.557Z,95.42
2023-03-31T13:14:14.858Z,95.46
2023-03-31T13:16:45.430Z,96.06
2023-03-31T13:19:28.733Z,96.04
2023-03-31T13:21:59.652Z,97.68
2023-03-31T13:24:29.666Z,98.56
2023-03-31T13:26:59.614Z,100.00
2023-03-31T13:29:41.967Z,100.00
2023-03-31T13:32:21.891Z,100.00
2023-03-31T13:34:58.015Z,100.00
2023-03-31T13:37:46.021Z,100.00
2023-03-31T13:40:45.269Z,100.00
2023-03-31T13:43:44.025Z,100.00
2023-03-31T13:46:43.425Z,100.00
2023-03-31T13:49:44.005Z,100.00
2023-03-31T13:52:14.076Z,100.00
2023-03-31T13:55:18.038Z,100.00
2023-03-31T13:58:24.794Z,100.00
2023-03-31T14:01:36.456Z,100.00
2023-03-31T14:04:18.249Z,100.00
2023-03-31T14:06:54.134Z,100.00
2023-03-31T14:09:28.624Z,100.00
2023-03-31T14:11:59.993Z,100.00
2023-03-31T14:14:30.116Z,100.00
2023-03-31T14:17:02.160Z,100.00
2023-03-31T14:19:50.838Z,100.00
2023-03-31T14:22:32.066Z,100.00
2023-03-31T14:25:12.870Z,100.00
2023-03-31T14:27:56.892Z,100.00
2023-03-31T14:30:35.211Z,100.00
2023-03-31T14:33:18.630Z,100.00
2023-03-31T14:35:58.261Z,100.00
2023-03-31T14:38:30.552Z,100.00
2023-03-31T14:41:01.357Z,100.00
2023-03-31T14:43:33.959Z,100.00
2023-03-31T14:46:03.821Z,100.00
2023-03-31T14:48:36.558Z,100.00
2023-03-31T14:51:11.688Z,100.00
2023-03-31T14:53:40.502Z,100.00
2023-03-31T14:56:13.840Z,100.00
2023-03-31T14:58:47.094Z,100.00
2023-03-31T15:01:21.566Z,100.00
2023-03-31T15:03:50.514Z,100.00
2023-03-31T15:06:21.262Z,100.00
2023-03-31T15:08:59.785Z,100.00
2023-03-31T15:11:30.527Z,100.00
2023-03-31T15:14:04.879Z,100.00
2023-03-31T15:16:42.764Z,100.00
2023-03-31T15:19:18.187Z,100.00
2023-03-31T15:21:56.472Z,100.00
2023-03-31T15:24:25.474Z,100.00
2023-03-31T15:26:59.197Z,100.00
2023-03-31T15:29:37.199Z,100.00
2023-03-31T15:32:08.958Z,100.00
2023-03-31T15:34:38.808Z,100.00
2023-03-31T15:37:09.814Z,100.00
2023-03-31T15:39:40.038Z,100.00
2023-03-31T15:42:10.047Z,100.00
2023-03-31T15:44:45.192Z,100.00
2023-03-31T15:47:20.744Z,100.00
2023-03-31T15:49:55.281Z,100.00
2023-03-31T15:52:34.181Z,100.00
2023-03-31T15:55:04.367Z,100.00
2023-03-31T15:57:36.283Z,100.00
2023-03-31T16:00:08.080Z,100.00
2023-03-31T16:02:43.699Z,100.00
2023-03-31T16:05:37.196Z,100.00
2023-03-31T16:08:16.447Z,100.00
2023-03-31T16:10:45.490Z,100.00
2023-03-31T16:13:23.518Z,100.00
2023-03-31T16:15:55.155Z,100.00
2023-03-31T16:18:29.154Z,100.00
2023-03-31T16:21:01.952Z,100.00
2023-03-31T16:23:37.556Z,100.00
2023-03-31T16:26:07.396Z,100.00
2023-03-31T16:28:38.747Z,100.00
2023-03-31T16:31:14.553Z,100.00
2023-03-31T16:33:55.886Z,100.00
2023-03-31T16:36:24.886Z,100.00
2023-03-31T16:38:55.718Z,100.00
2023-03-31T16:41:25.126Z,100.00
2023-03-31T16:43:54.335Z,100.00
2023-03-31T16:46:23.366Z,100.00
2023-03-31T16:48:52.163Z,100.00
2023-03-31T16:51:21.235Z,100.00
2023-03-31T16:53:50.123Z,100.00
2023-03-31T16:56:22.236Z,100.00
2023-03-31T16:58:50.951Z,100.00
2023-03-31T17:01:19.619Z,100.00
2023-03-31T17:03:49.495Z,100.00
2023-03-31T17:06:18.195Z,100.00
2023-03-31T17:08:47.062Z,100.00
2023-03-31T17:11:16.212Z,100.00
2023-03-31T17:13:46.989Z,100.00
2023-03-31T17:16:19.134Z,100.00
2023-03-31T17:18:53.208Z,100.00
2023-03-31T17:21:22.400Z,100.00
2023-03-31T17:23:51.118Z,100.00
2023-03-31T17:26:20.351Z,100.00
2023-03-31T17:28:50.303Z,100.00
2023-03-31T17:31:20.979Z,100.00
2023-03-31T17:33:49.776Z,100.00
2023-03-31T17:36:18.721Z,100.00
2023-03-31T17:38:47.346Z,100.00
2023-03-31T17:41:18.057Z,100.00
2023-03-31T17:43:47.327Z,100.00
2023-03-31T17:46:18.278Z,100.00
2023-03-31T17:48:47.027Z,100.00
2023-03-31T17:51:17.197Z,100.00
2023-03-31T17:53:47.380Z,100.00
2023-03-31T17:56:17.524Z,100.00
2023-03-31T17:58:46.956Z,100.00
2023-03-31T18:01:17.274Z,100.00
2023-03-31T18:03:46.537Z,100.00
2023-03-31T18:06:18.014Z,100.00
2023-03-31T18:08:46.621Z,100.00
2023-03-31T18:11:16.097Z,100.00
2023-03-31T18:13:45.849Z,100.00
2023-03-31T18:16:15.016Z,100.00
2023-03-31T18:18:45.024Z,100.00
2023-03-31T18:21:15.084Z,100.00
2023-03-31T18:23:43.726Z,100.00
2023-03-31T18:26:14.442Z,100.00
2023-03-31T18:28:43.643Z,100.00
2023-03-31T18:31:14.306Z,100.00
2023-03-31T18:33:45.063Z,100.00
2023-03-31T18:36:18.307Z,100.00
2023-03-31T18:38:47.347Z,100.00
2023-03-31T18:41:16.627Z,100.00
2023-03-31T18:43:45.467Z,100.00
2023-03-31T18:46:14.640Z,100.00
2023-03-31T18:48:46.392Z,100.00
2023-03-31T18:51:15.645Z,100.00
2023-03-31T18:53:44.132Z,100.00
2023-03-31T18:56:13.546Z,100.00
2023-03-31T18:58:42.506Z,100.00
2023-03-31T19:01:11.151Z,100.00
2023-03-31T19:03:39.819Z,100.00
2023-03-31T19:06:13.922Z,100.00
2023-03-31T19:08:42.633Z,100.00
2023-03-31T19:11:13.255Z,100.00
2023-03-31T19:13:43.212Z,100.00
2023-03-31T19:16:12.345Z,100.00
2023-03-31T19:18:41.677Z,100.00
2023-03-31T19:21:12.242Z,100.00
2023-03-31T19:23:41.416Z,100.00
2023-03-31T19:26:14.060Z,100.00
2023-03-31T19:28:42.682Z,100.00
2023-03-31T19:31:12.615Z,100.00
2023-03-31T19:33:41.153Z,100.00
2023-03-31T19:36:11.604Z,100.00
2023-03-31T19:38:40.324Z,100.00
2023-03-31T19:41:09.917Z,100.00
2023-03-31T19:43:43.655Z,100.00
2023-03-31T19:46:12.429Z,100.00
2023-03-31T19:48:41.419Z,100.00
2023-03-31T19:51:12.178Z,100.00
2023-03-31T19:53:41.472Z,100.00
2023-03-31T19:56:11.442Z,100.00
2023-03-31T19:58:40.604Z,100.00
2023-03-31T20:01:11.796Z,100.00
2023-03-31T20:03:40.363Z,100.00
2023-03-31T20:06:11.984Z,100.00
2023-03-31T20:08:43.151Z,100.00
2023-03-31T20:11:14.152Z,100.00
2023-03-31T20:13:44.445Z,100.00
2023-03-31T20:16:15.002Z,100.00
2023-03-31T20:18:49.157Z,100.00
2023-03-31T20:21:20.954Z,100.00
2023-03-31T20:23:54.311Z,100.00
2023-03-31T20:26:25.464Z,100.00
2023-03-31T20:28:56.223Z,100.00
2023-03-31T20:31:26.710Z,100.00
2023-03-31T20:33:56.482Z,100.00
2023-03-31T20:36:29.654Z,100.00
2023-03-31T20:38:58.737Z,100.00
2023-03-31T20:41:32.038Z,100.00
2023-03-31T20:44:00.983Z,100.00
2023-03-31T20:46:29.839Z,100.00
2023-03-31T20:48:59.215Z,100.00
2023-03-31T20:51:30.979Z,100.00
2023-03-31T20:54:01.640Z,100.00
2023-03-31T20:56:32.015Z,100.00
2023-03-31T20:59:02.298Z,100.00
2023-03-31T21:01:35.537Z,100.00
2023-03-31T21:04:06.470Z,100.00
2023-03-31T21:06:41.279Z,100.00
2023-03-31T21:09:11.884Z,100.00
2023-03-31T21:11:40.909Z,100.00
2023-03-31T21:14:10.000Z,100.00
2023-03-31T21:16:40.222Z,100.00
2023-03-31T21:19:08.807Z,100.00
2023-03-31T21:21:41.534Z,100.00
2023-03-31T21:24:12.774Z,100.00
2023-03-31T21:26:41.748Z,100.00
2023-03-31T21:29:10.609Z,100.00
2023-03-31T21:31:39.267Z,100.00
2023-03-31T21:34:07.909Z,100.00
2023-03-31T21:36:36.598Z,100.00
2023-03-31T21:39:06.822Z,100.00
2023-03-31T21:41:35.509Z,100.00
2023-03-31T21:44:04.515Z,100.00
2023-03-31T21:46:34.473Z,100.00
2023-03-31T21:49:04.016Z,100.00
2023-03-31T21:51:33.017Z,100.00
2023-03-31T21:54:02.160Z,100.00
2023-03-31T21:56:32.783Z,100.00
2023-03-31T21:59:02.525Z,100.00
2023-03-31T22:01:31.634Z,100.00
2023-03-31T22:04:00.700Z,100.00
2023-03-31T22:06:29.563Z,100.00
2023-03-31T22:08:57.984Z,100.00
2023-03-31T22:11:27.397Z,100.00
2023-03-31T22:13:58.434Z,100.00
2023-03-31T22:16:27.348Z,100.00
2023-03-31T22:18:57.925Z,100.00
2023-03-31T22:21:28.564Z,100.00
2023-03-31T22:23:59.234Z,100.00
2023-03-31T22:26:30.040Z,100.00
2023-03-31T22:29:00.157Z,100.00
2023-03-31T22:31:28.944Z,100.00
2023-03-31T22:33:57.548Z,100.00
2023-03-31T22:36:26.028Z,100.00
2023-03-31T22:38:54.625Z,100.00
2023-03-31T22:41:23.437Z,100.00
2023-03-31T22:43:52.500Z,100.00
2023-03-31T22:46:22.603Z,100.00
2023-03-31T22:48:54.124Z,100.00
2023-03-31T22:51:22.708Z,100.00
2023-03-31T22:53:52.534Z,100.00
2023-03-31T22:56:21.829Z,100.00
2023-03-31T22:58:50.745Z,100.00
2023-03-31T23:01:22.608Z,100.00
2023-03-31T23:03:51.351Z,100.00
2023-03-31T23:06:20.438Z,100.00
2023-03-31T23:08:49.881Z,100.00
2023-03-31T23:11:19.099Z,100.00
2023-03-31T23:13:50.404Z,100.00
2023-03-31T23:16:22.845Z,100.00
2023-03-31T23:18:53.154Z,100.00
2023-03-31T23:21:24.685Z,100.00
2023-03-31T23:23:55.115Z,100.00
2023-03-31T23:26:26.656Z,100.00
2023-03-31T23:28:55.539Z,100.00
2023-03-31T23:31:27.909Z,100.00
2023-03-31T23:33:56.515Z,100.00
2023-03-31T23:36:25.920Z,100.00
2023-03-31T23:38:56.358Z,100.00
2023-03-31T23:41:26.672Z,100.00
2023-03-31T23:43:57.904Z,100.00
2023-03-31T23:46:28.152Z,100.00
2023-03-31T23:48:56.818Z,100.00
2023-03-31T23:51:25.849Z,100.00
2023-03-31T23:53:54.531Z,100.00
2023-03-31T23:56:23.125Z,100.00
2023-03-31T23:58:51.822Z,100.00
